Terminal Aerodrome Forecast
Issued by NWS

Home | Current Version | Previous Version | Text Only | Print | Product List | Glossary On
Versions: 1 2 3 4 5 6 7 8 9 10 11 12 13 14 15 16 17 18 19 20 21 22 23 24
000
FTUS42 KTBW 020000 AAA
TAFLAL
TAF AMD
KLAL 020054Z 0201/0224 VRB04KT P6SM SCT025 SCT250
      TEMPO 0202/0204 BKN030
     FM020800 VRB03KT P6SM SCT015 SCT250
     FM021800 02006KT P6SM VCTS SCT035CB SCT100=

USA.gov is the U.S. government's official web portal to all federal, state and local government web resources and services.